Главная страница
METAR-TAF:

METAR-TAF

Аэропорты :

Киркенес, Норвегия

широта: 69-44N, долгота: 029-54E, высота над уровнем моря: 9 м

Текущие метеонаблюдения

Эта сводка был подготовлена 12 минут назад, в 16:50 UTC
Ветер 6 Узел от восточно-юго-восточный
Температура 5°C
Влажность 70%
Давление 1026 hPa
Видимость 10 км и более
небольшая облачность на высоте 2900 фута

METAR: ENKR 191650Z 11006KT 9999 FEW029 05/00 Q1026 RMK WIND 731FT 09014KT

Время: 19:02 (17:02 UTC)

Прогноз

Эта сводка был подготовлена 3 часа и 2 минут назад, в 14:00 UTC
Прогноз действительный с 19-го 15 UTC до 19-го 24 UTC
Ветер 8 Узел от восточный
Видимость 10 км и более
небольшая облачность на высоте 1500 фута
Рассеянная облачность на высоте 3000 фута

TAF: ENKR 191400Z 1915/1924 09008KT 9999 FEW015 BKN030

Метеонаблюдения и прогнозы для более 4000 аэропортов (сводки METAR и TAF).

Имеющиеся станции представлены на карте желтыми и красными точками.

Чтобы увидеть название станции, наведите на нее мышь.

Затем щелкните, чтобы увидеть метеонаблюдения и метеопрогнозы.

Управление картой: чтобы увеличить масштаб, щелкните зеленые кнопки с черным крестиком; чтобы уменьшить масштаб, щелкните зеленую кнопку с тире; для просмотра соседних карт щелкайте зеленые стрелки.


METAR-TAF: